createdAt,value
2019-03-04T00:01:26.295Z,97256.99
2019-03-04T00:03:57.593Z,97255.11
2019-03-04T00:06:31.337Z,97241.03
2019-03-04T00:09:03.846Z,97236.28
2019-03-04T00:11:35.469Z,97238.44
2019-03-04T00:14:07.538Z,97226.36
2019-03-04T00:16:38.786Z,97218.32
2019-03-04T00:19:10.753Z,97223.83
2019-03-04T00:21:42.939Z,97228.23
2019-03-04T00:24:14.433Z,97227.31
2019-03-04T00:26:46.066Z,97228.89
2019-03-04T00:29:17.860Z,97221.23
2019-03-04T00:32:23.857Z,97217.77
2019-03-04T00:34:51.389Z,97220.48
2019-03-04T00:37:19.656Z,97213.60
2019-03-04T00:39:49.611Z,97217.86
2019-03-04T00:42:17.524Z,97217.44
2019-03-04T00:44:45.714Z,97218.13
2019-03-04T00:47:13.132Z,97223.49
2019-03-04T00:49:41.421Z,97219.47
2019-03-04T00:52:09.372Z,97220.30
2019-03-04T00:54:38.059Z,97224.14
2019-03-04T00:57:06.206Z,97209.70
2019-03-04T00:59:33.631Z,97205.82
2019-03-04T01:02:02.535Z,97205.97
2019-03-04T01:04:30.242Z,97203.57
2019-03-04T01:06:58.463Z,97198.77
2019-03-04T01:09:27.223Z,97198.72
2019-03-04T01:11:54.629Z,97196.80
2019-03-04T01:14:22.577Z,97188.31
2019-03-04T01:16:51.181Z,97182.40
2019-03-04T01:19:19.580Z,97180.32
2019-03-04T01:21:48.118Z,97176.20
2019-03-04T01:24:16.181Z,97174.69
2019-03-04T01:26:43.955Z,97166.59
2019-03-04T01:29:11.347Z,97160.63
2019-03-04T01:31:39.654Z,97154.70
2019-03-04T01:34:07.446Z,97142.95
2019-03-04T01:36:35.596Z,97127.09
2019-03-04T01:39:05.450Z,97116.66
2019-03-04T01:41:33.607Z,97110.05
2019-03-04T01:44:02.013Z,97101.41
2019-03-04T01:46:30.062Z,97098.28
2019-03-04T01:48:58.439Z,97093.16
2019-03-04T01:51:27.411Z,97083.33
2019-03-04T01:53:56.142Z,97084.77
2019-03-04T01:56:24.773Z,97084.81
2019-03-04T01:58:53.169Z,97084.00
2019-03-04T02:01:21.597Z,97093.21
2019-03-04T02:03:49.272Z,97096.65
2019-03-04T02:06:17.130Z,97094.49
2019-03-04T02:10:19.741Z,97081.25
2019-03-04T02:14:27.860Z,97076.08
2019-03-04T02:18:07.710Z,97075.73
2019-03-04T02:21:55.377Z,97080.89
2019-03-04T02:24:27.011Z,97060.28
2019-03-04T02:26:56.663Z,97058.27
2019-03-04T02:29:25.423Z,97070.66
2019-03-04T02:31:53.518Z,97041.84
2019-03-04T02:34:22.013Z,97037.89
2019-03-04T02:36:53.112Z,97022.87
2019-03-04T02:39:23.807Z,97027.48
2019-03-04T02:41:52.498Z,97011.23
2019-03-04T02:44:20.446Z,97008.61
2019-03-04T02:46:50.228Z,96997.36
2019-03-04T02:49:17.992Z,96990.45
2019-03-04T02:51:45.374Z,96993.35
2019-03-04T02:54:13.849Z,96986.46
2019-03-04T02:56:41.890Z,96996.06
2019-03-04T02:59:09.951Z,96984.49
2019-03-04T03:01:38.374Z,96983.20
2019-03-04T03:04:06.416Z,96966.85
2019-03-04T03:06:34.791Z,96968.35
2019-03-04T03:09:04.912Z,96971.17
2019-03-04T03:11:32.329Z,96975.63
2019-03-04T03:14:00.475Z,96971.73
2019-03-04T03:16:29.143Z,96970.77
2019-03-04T03:18:56.961Z,96975.69
2019-03-04T03:21:24.478Z,96974.20
2019-03-04T03:23:52.243Z,96976.88
2019-03-04T03:26:20.609Z,96963.16
2019-03-04T03:28:48.352Z,96963.00
2019-03-04T03:31:16.370Z,96950.48
2019-03-04T03:33:43.827Z,96953.94
2019-03-04T03:36:11.502Z,96952.95
2019-03-04T03:38:39.928Z,96956.75
2019-03-04T03:41:08.399Z,96957.75
2019-03-04T03:43:36.103Z,96953.94
2019-03-04T03:46:04.091Z,96948.01
2019-03-04T03:48:32.181Z,96948.98
2019-03-04T03:51:00.381Z,96946.00
2019-03-04T03:53:28.140Z,96949.81
2019-03-04T03:55:56.265Z,96948.48
2019-03-04T03:58:25.478Z,96943.72
2019-03-04T04:00:53.730Z,96946.02
2019-03-04T04:03:22.256Z,96950.63
2019-03-04T04:05:50.219Z,96949.98
2019-03-04T04:08:17.668Z,96957.56
2019-03-04T04:10:46.114Z,96951.78
2019-03-04T04:13:14.151Z,96958.08
2019-03-04T04:15:41.842Z,96966.83
2019-03-04T04:18:10.580Z,96974.06
2019-03-04T04:20:38.905Z,96957.74
2019-03-04T04:23:07.081Z,96931.84
2019-03-04T04:25:35.388Z,96880.35
2019-03-04T04:28:06.196Z,96912.03
2019-03-04T04:30:34.923Z,96913.03
2019-03-04T04:33:03.005Z,96902.78
2019-03-04T04:35:31.228Z,96884.31
2019-03-04T04:37:59.676Z,96876.06
2019-03-04T04:40:30.558Z,96875.56
2019-03-04T04:42:58.143Z,96883.83
2019-03-04T04:45:26.217Z,96877.40
2019-03-04T04:47:53.959Z,96870.46
2019-03-04T04:50:21.723Z,96861.39
2019-03-04T04:52:50.404Z,96848.71
2019-03-04T04:55:18.441Z,96831.37
2019-03-04T04:57:46.511Z,96820.16
2019-03-04T05:00:14.491Z,96811.06
2019-03-04T05:02:42.513Z,96800.83
2019-03-04T05:05:10.886Z,96793.73
2019-03-04T05:07:39.177Z,96792.03
2019-03-04T05:10:09.947Z,96785.88
2019-03-04T05:12:38.300Z,96778.31
2019-03-04T05:15:09.427Z,96774.38
2019-03-04T05:17:39.497Z,96758.12
2019-03-04T05:20:10.019Z,96765.55
2019-03-04T05:22:38.192Z,96742.44
2019-03-04T05:25:06.409Z,96765.73
2019-03-04T05:27:34.177Z,96755.69
2019-03-04T05:30:01.847Z,96755.84
2019-03-04T05:32:29.807Z,96747.44
2019-03-04T05:34:58.477Z,96752.70
2019-03-04T05:37:27.486Z,96754.06
2019-03-04T05:39:56.937Z,96726.36
2019-03-04T05:42:24.953Z,96720.12
2019-03-04T05:44:53.033Z,96709.53
2019-03-04T05:47:21.131Z,96706.26
2019-03-04T05:49:48.878Z,96700.47
2019-03-04T05:52:17.030Z,96690.23
2019-03-04T05:54:44.865Z,96689.47
2019-03-04T05:57:12.862Z,96681.55
2019-03-04T05:59:40.654Z,96679.44
2019-03-04T06:02:09.942Z,96667.08
2019-03-04T06:04:38.514Z,96651.58
2019-03-04T06:07:32.334Z,96643.66
2019-03-04T06:09:59.739Z,96642.31
2019-03-04T06:12:27.440Z,96620.70
2019-03-04T06:14:55.175Z,96593.85
2019-03-04T06:17:22.969Z,96573.55
2019-03-04T06:19:51.024Z,96571.31
2019-03-04T06:22:19.180Z,96569.39
2019-03-04T06:24:47.050Z,96570.20
2019-03-04T06:27:15.131Z,96574.22
2019-03-04T06:29:43.282Z,96575.56
2019-03-04T06:32:11.354Z,96583.89
2019-03-04T06:34:39.881Z,96581.73
2019-03-04T06:37:07.934Z,96576.28
2019-03-04T06:39:35.955Z,96563.04
2019-03-04T06:42:03.652Z,96552.16
2019-03-04T06:44:32.067Z,96549.44
2019-03-04T06:47:00.252Z,96529.38
2019-03-04T06:49:28.785Z,96528.38
2019-03-04T06:51:57.176Z,96530.66
2019-03-04T06:54:40.654Z,96543.52
2019-03-04T06:57:28.275Z,96558.40
2019-03-04T07:00:35.711Z,96567.05
2019-03-04T07:03:10.150Z,96560.45
2019-03-04T07:05:48.796Z,96543.75
2019-03-04T07:09:14.451Z,96518.37
2019-03-04T07:11:46.937Z,96498.86
2019-03-04T07:14:14.669Z,96496.15
2019-03-04T07:16:42.643Z,96510.61
2019-03-04T07:19:16.384Z,96508.14
2019-03-04T07:21:44.587Z,96513.22
2019-03-04T07:24:12.942Z,96508.55
2019-03-04T07:26:40.832Z,96515.23
2019-03-04T07:29:08.643Z,96515.19
2019-03-04T07:31:36.809Z,96516.19
2019-03-04T07:34:04.592Z,96512.92
2019-03-04T07:36:33.212Z,96504.79
2019-03-04T07:39:13.748Z,96514.18
2019-03-04T07:41:43.797Z,96511.80
2019-03-04T07:44:11.184Z,96515.50
2019-03-04T07:46:38.698Z,96514.11
2019-03-04T07:49:06.465Z,96520.09
2019-03-04T07:51:34.405Z,96510.25
2019-03-04T07:54:02.538Z,96522.89
2019-03-04T07:56:30.642Z,96520.73
2019-03-04T07:58:58.487Z,96512.92
2019-03-04T08:01:27.134Z,96523.13
2019-03-04T08:03:56.723Z,96518.20
2019-03-04T08:06:25.075Z,96524.17
2019-03-04T08:09:55.655Z,96523.01
2019-03-04T08:13:16.174Z,96527.73
2019-03-04T08:15:46.256Z,96531.98
2019-03-04T08:18:14.335Z,96526.20
2019-03-04T08:20:42.795Z,96515.44
2019-03-04T08:23:10.857Z,96524.33
2019-03-04T08:25:39.060Z,96540.58
2019-03-04T08:28:09.030Z,96540.03
2019-03-04T08:30:38.760Z,96545.05
2019-03-04T08:33:06.810Z,96552.92
2019-03-04T08:35:34.858Z,96555.00
2019-03-04T08:38:02.735Z,96563.25
2019-03-04T08:40:35.835Z,96570.23
2019-03-04T08:43:03.954Z,96580.01
2019-03-04T08:45:32.014Z,96580.67
2019-03-04T08:48:00.562Z,96585.19
2019-03-04T08:50:28.311Z,96598.81
2019-03-04T08:52:56.918Z,96609.77
2019-03-04T08:55:25.356Z,96610.84
2019-03-04T08:57:52.758Z,96618.31
2019-03-04T09:00:23.001Z,96614.95
2019-03-04T09:02:50.502Z,96614.84
2019-03-04T09:05:18.213Z,96619.13
2019-03-04T09:07:46.089Z,96616.78
2019-03-04T09:10:19.565Z,96614.41
2019-03-04T09:12:47.270Z,96608.59
2019-03-04T09:15:15.708Z,96626.50
2019-03-04T09:17:44.203Z,96638.78
2019-03-04T09:20:12.999Z,96639.97
2019-03-04T09:22:40.989Z,96648.17
2019-03-04T09:25:12.203Z,96650.55
2019-03-04T09:27:40.282Z,96660.28
2019-03-04T09:30:09.058Z,96664.48
2019-03-04T09:32:36.575Z,96651.48
2019-03-04T09:35:04.464Z,96676.91
2019-03-04T09:37:32.656Z,96687.03
2019-03-04T09:40:02.020Z,96722.05
2019-03-04T09:42:30.618Z,96711.25
2019-03-04T09:44:59.254Z,96731.91
2019-03-04T09:47:27.565Z,96730.34
2019-03-04T09:49:55.266Z,96732.64
2019-03-04T09:52:23.449Z,96677.39
2019-03-04T09:54:51.338Z,96655.13
2019-03-04T09:57:18.981Z,96628.58
2019-03-04T09:59:47.109Z,96630.03
2019-03-04T10:02:26.076Z,96605.62
2019-03-04T10:05:31.565Z,96584.52
2019-03-04T10:08:10.032Z,96574.09
2019-03-04T10:10:57.780Z,96555.31
2019-03-04T10:14:02.086Z,96535.81
2019-03-04T10:16:56.999Z,96538.13
2019-03-04T10:20:02.112Z,96550.39
2019-03-04T10:23:00.940Z,96539.61
2019-03-04T10:26:06.935Z,96516.66
2019-03-04T10:29:02.218Z,96492.59
2019-03-04T10:32:20.815Z,96521.30
2019-03-04T10:35:28.316Z,96539.33
2019-03-04T10:38:34.400Z,96527.13
2019-03-04T10:41:39.360Z,96505.92
2019-03-04T10:44:44.865Z,96498.59
2019-03-04T10:47:13.255Z,96488.39
2019-03-04T10:49:40.718Z,96505.13
2019-03-04T10:52:09.235Z,96496.30
2019-03-04T10:54:37.090Z,96508.89
2019-03-04T10:57:05.411Z,96517.48
2019-03-04T10:59:33.166Z,96535.31
2019-03-04T11:02:01.252Z,96513.52
2019-03-04T11:04:29.325Z,96534.84
2019-03-04T11:06:57.050Z,96559.16
2019-03-04T11:09:25.606Z,96533.25
2019-03-04T11:11:53.349Z,96515.88
2019-03-04T11:14:21.393Z,96528.01
2019-03-04T11:16:49.288Z,96527.77
2019-03-04T11:19:17.740Z,96539.46
2019-03-04T11:21:45.816Z,96533.23
2019-03-04T11:24:14.169Z,96529.43
2019-03-04T11:26:42.334Z,96499.56
2019-03-04T11:29:10.853Z,96525.34
2019-03-04T11:31:38.831Z,96520.43
2019-03-04T11:34:06.926Z,96525.87
2019-03-04T11:36:34.952Z,96563.09
2019-03-04T11:39:15.479Z,96556.84
2019-03-04T11:41:43.159Z,96556.56
2019-03-04T11:44:11.529Z,96556.81
2019-03-04T11:46:39.060Z,96552.45
2019-03-04T11:49:06.782Z,96531.36
2019-03-04T11:51:35.563Z,96530.73
2019-03-04T11:54:04.169Z,96519.88
2019-03-04T11:56:32.220Z,96533.39
2019-03-04T11:58:59.601Z,96511.98
2019-03-04T12:01:34.096Z,96467.27
2019-03-04T12:04:02.200Z,96469.03
2019-03-04T12:06:29.612Z,96490.34
2019-03-04T12:08:57.260Z,96475.94
2019-03-04T12:11:24.993Z,96514.16
2019-03-04T12:13:53.349Z,96484.10
2019-03-04T12:16:21.270Z,96516.33
2019-03-04T12:18:49.025Z,96522.02
2019-03-04T12:21:16.847Z,96527.77
2019-03-04T12:23:44.662Z,96504.67
2019-03-04T12:26:12.291Z,96508.48
2019-03-04T12:28:40.019Z,96510.63
2019-03-04T12:31:08.182Z,96523.23
2019-03-04T12:33:36.243Z,96516.32
2019-03-04T12:36:05.124Z,96508.54
2019-03-04T12:38:33.424Z,96521.11
2019-03-04T12:41:01.004Z,96520.52
2019-03-04T12:43:29.041Z,96529.05
2019-03-04T12:45:57.419Z,96567.12
2019-03-04T12:48:25.408Z,96548.39
2019-03-04T12:50:53.582Z,96553.41
2019-03-04T12:53:21.651Z,96563.45
2019-03-04T12:55:50.051Z,96563.53
2019-03-04T12:58:18.551Z,96557.80
2019-03-04T13:00:46.370Z,96564.98
2019-03-04T13:03:33.885Z,96542.03
2019-03-04T13:06:02.050Z,96536.38
2019-03-04T13:08:29.743Z,96540.09
2019-03-04T13:10:57.486Z,96525.76
2019-03-04T13:13:25.235Z,96527.70
2019-03-04T13:15:54.447Z,96540.79
2019-03-04T13:18:22.499Z,96530.88
2019-03-04T13:20:50.998Z,96536.71
2019-03-04T13:23:19.096Z,96524.33
2019-03-04T13:25:46.939Z,96517.66
2019-03-04T13:28:14.641Z,96504.05
2019-03-04T13:30:42.897Z,96515.50
2019-03-04T13:33:11.070Z,96519.83
2019-03-04T13:35:38.500Z,96496.68
2019-03-04T13:38:06.612Z,96499.56
2019-03-04T13:40:35.368Z,96516.22
2019-03-04T13:43:03.956Z,96511.33
2019-03-04T13:45:32.278Z,96499.14
2019-03-04T13:48:00.764Z,96509.77
2019-03-04T13:50:28.586Z,96493.00
2019-03-04T13:52:56.545Z,96498.14
2019-03-04T13:55:24.903Z,96506.94
2019-03-04T13:57:52.672Z,96509.58
2019-03-04T14:00:20.108Z,96504.38
2019-03-04T14:02:47.853Z,96501.19
2019-03-04T14:05:17.016Z,96510.30
2019-03-04T14:07:45.168Z,96509.48
2019-03-04T14:10:14.325Z,96502.83
2019-03-04T14:12:42.211Z,96520.11
2019-03-04T14:15:15.711Z,96494.75
2019-03-04T14:17:43.522Z,96512.44
2019-03-04T14:20:11.811Z,96500.56
2019-03-04T14:22:40.521Z,96504.31
2019-03-04T14:25:08.847Z,96493.11
2019-03-04T14:27:36.740Z,96487.98
2019-03-04T14:30:05.757Z,96483.67
2019-03-04T14:32:34.266Z,96483.17
2019-03-04T14:35:02.269Z,96483.88
2019-03-04T14:37:30.385Z,96471.61
2019-03-04T14:39:58.764Z,96489.39
2019-03-04T14:42:26.496Z,96494.61
2019-03-04T14:44:54.161Z,96491.03
2019-03-04T14:47:22.645Z,96482.76
2019-03-04T14:49:51.110Z,96476.93
2019-03-04T14:52:18.894Z,96471.84
2019-03-04T14:54:46.312Z,96470.42
2019-03-04T14:57:14.479Z,96482.99
2019-03-04T14:59:42.470Z,96476.55
2019-03-04T15:02:09.858Z,96470.70
2019-03-04T15:04:37.738Z,96471.20
2019-03-04T15:07:06.048Z,96473.98
2019-03-04T15:09:34.103Z,96492.30
2019-03-04T15:12:01.480Z,96499.14
2019-03-04T15:14:29.932Z,96521.66
2019-03-04T15:17:03.308Z,96539.85
2019-03-04T15:19:28.125Z,96540.25
2019-03-04T15:21:55.889Z,96513.83
2019-03-04T15:24:23.368Z,96527.34
2019-03-04T15:26:52.102Z,96533.63
2019-03-04T15:29:20.609Z,96528.34
2019-03-04T15:31:48.576Z,96518.28
2019-03-04T15:34:17.067Z,96514.50
2019-03-04T15:36:45.953Z,96510.33
2019-03-04T15:39:22.855Z,96506.50
2019-03-04T15:41:46.307Z,96493.81
2019-03-04T15:44:14.508Z,96500.73
2019-03-04T15:46:42.232Z,96504.84
2019-03-04T15:49:10.434Z,96504.44
2019-03-04T15:51:37.822Z,96505.27
2019-03-04T15:54:06.232Z,96508.70
2019-03-04T15:56:35.545Z,96516.45
2019-03-04T15:59:03.598Z,96511.57
2019-03-04T16:01:32.078Z,96512.07
2019-03-04T16:04:00.608Z,96515.02
2019-03-04T16:06:28.913Z,96513.20
2019-03-04T16:08:56.724Z,96507.35
2019-03-04T16:11:24.833Z,96511.54
2019-03-04T16:13:56.091Z,96515.33
2019-03-04T16:16:23.272Z,96513.00
2019-03-04T16:18:51.559Z,96503.97
2019-03-04T16:21:19.692Z,96501.91
2019-03-04T16:23:48.409Z,96500.28
2019-03-04T16:26:16.836Z,96503.63
2019-03-04T16:28:44.537Z,96502.80
2019-03-04T16:31:12.200Z,96509.63
2019-03-04T16:33:40.607Z,96510.17
2019-03-04T16:36:08.664Z,96495.95
2019-03-04T16:38:37.182Z,96518.01
2019-03-04T16:41:04.567Z,96536.20
2019-03-04T16:43:33.393Z,96553.27
2019-03-04T16:46:01.535Z,96600.64
2019-03-04T16:48:29.703Z,96646.87
2019-03-04T16:50:58.028Z,96692.50
2019-03-04T16:53:26.705Z,96702.27
2019-03-04T16:55:55.177Z,96672.91
2019-03-04T16:58:27.748Z,96687.88
2019-03-04T17:00:56.051Z,96671.47
2019-03-04T17:03:24.152Z,96675.41
2019-03-04T17:05:52.145Z,96701.89
2019-03-04T17:08:20.751Z,96693.05
2019-03-04T17:10:50.350Z,96713.44
2019-03-04T17:13:18.448Z,96715.24
2019-03-04T17:15:46.799Z,96710.55
2019-03-04T17:18:14.804Z,96704.41
2019-03-04T17:20:42.848Z,96709.09
2019-03-04T17:23:13.029Z,96707.63
2019-03-04T17:25:42.972Z,96707.63
2019-03-04T17:28:11.452Z,96709.77
2019-03-04T17:30:40.089Z,96699.58
2019-03-04T17:33:08.110Z,96715.31
2019-03-04T17:35:35.923Z,96707.48
2019-03-04T17:38:03.750Z,96706.20
2019-03-04T17:40:32.227Z,96703.80
2019-03-04T17:42:59.952Z,96701.91
2019-03-04T17:45:28.464Z,96682.78
2019-03-04T17:47:56.257Z,96695.80
2019-03-04T17:50:27.915Z,96693.30
2019-03-04T17:52:55.733Z,96710.18
2019-03-04T17:55:24.381Z,96740.67
2019-03-04T17:57:52.598Z,96739.17
2019-03-04T18:00:20.395Z,96742.48
2019-03-04T18:02:48.983Z,96755.32
2019-03-04T18:07:57.269Z,96762.58
2019-03-04T18:10:30.740Z,96797.37
2019-03-04T18:13:02.290Z,96771.84
2019-03-04T18:15:34.406Z,96789.30
2019-03-04T18:18:07.501Z,96800.84
2019-03-04T18:20:40.348Z,96822.45
2019-03-04T18:23:14.519Z,96837.81
2019-03-04T18:25:56.911Z,96846.06
2019-03-04T18:29:33.853Z,96860.58
2019-03-04T18:33:17.021Z,96859.09
2019-03-04T18:37:01.372Z,96874.43
2019-03-04T18:40:22.830Z,96884.64
2019-03-04T18:43:45.770Z,96898.66
2019-03-04T18:46:49.604Z,96901.79
2019-03-04T18:49:26.364Z,96912.47
2019-03-04T18:51:59.766Z,96920.39
2019-03-04T18:54:32.802Z,96936.05
2019-03-04T18:57:07.147Z,96937.36
2019-03-04T18:59:39.839Z,96946.40
2019-03-04T19:02:12.610Z,96948.71
2019-03-04T19:04:46.062Z,96954.30
2019-03-04T19:07:20.074Z,96955.90
2019-03-04T19:09:53.653Z,96961.77
2019-03-04T19:12:27.036Z,96970.83
2019-03-04T19:15:00.314Z,96971.81
2019-03-04T19:17:33.721Z,96976.27
2019-03-04T19:20:10.575Z,96999.19
2019-03-04T19:22:43.301Z,96997.49
2019-03-04T19:25:16.613Z,97005.39
2019-03-04T19:27:48.516Z,97010.66
2019-03-04T19:30:21.828Z,97016.09
2019-03-04T19:32:55.608Z,97017.34
2019-03-04T19:35:28.653Z,97019.02
2019-03-04T19:38:05.273Z,97039.08
2019-03-04T19:40:39.477Z,97030.97
2019-03-04T19:43:11.611Z,97030.64
2019-03-04T19:45:44.162Z,97058.23
2019-03-04T19:48:17.629Z,97046.20
2019-03-04T19:50:51.637Z,97043.86
2019-03-04T19:53:25.287Z,97044.94
2019-03-04T19:55:58.270Z,97054.80
2019-03-04T19:58:30.981Z,97052.49
2019-03-04T20:01:04.652Z,97055.84
2019-03-04T20:03:37.978Z,97066.81
2019-03-04T20:06:11.006Z,97071.53
2019-03-04T20:08:44.424Z,97072.16
2019-03-04T20:11:17.811Z,97085.55
2019-03-04T20:13:50.439Z,97088.33
2019-03-04T20:16:24.285Z,97099.72
2019-03-04T20:18:58.257Z,97097.30
2019-03-04T20:21:31.182Z,97098.11
2019-03-04T20:24:04.624Z,97106.55
2019-03-04T20:26:38.765Z,97113.47
2019-03-04T20:29:11.796Z,97112.61
2019-03-04T20:31:44.821Z,97110.46
2019-03-04T20:34:18.995Z,97115.39
2019-03-04T20:36:52.805Z,97121.55
2019-03-04T20:39:26.921Z,97119.34
2019-03-04T20:42:00.897Z,97126.19
2019-03-04T20:44:34.173Z,97129.48
2019-03-04T20:47:07.302Z,97133.78
2019-03-04T20:49:40.503Z,97141.14
2019-03-04T20:52:14.129Z,97145.34
2019-03-04T20:54:47.996Z,97144.97
2019-03-04T20:57:21.399Z,97158.72
2019-03-04T20:59:54.779Z,97166.17
2019-03-04T21:02:28.141Z,97170.09
2019-03-04T21:05:01.543Z,97181.97
2019-03-04T21:07:34.285Z,97191.39
2019-03-04T21:10:08.617Z,97187.20
2019-03-04T21:12:42.742Z,97194.32
2019-03-04T21:15:17.661Z,97195.71
2019-03-04T21:17:50.589Z,97199.66
2019-03-04T21:20:23.631Z,97195.23
2019-03-04T21:22:56.631Z,97197.03
2019-03-04T21:26:22.645Z,97196.19
2019-03-04T21:29:37.859Z,97202.02
2019-03-04T21:32:51.659Z,97208.24
2019-03-04T21:36:50.427Z,97213.27
2019-03-04T21:39:31.840Z,97212.77
2019-03-04T21:42:26.048Z,97213.78
2019-03-04T21:45:45.528Z,97226.23
2019-03-04T21:48:34.793Z,97224.56
2019-03-04T21:51:38.443Z,97231.68
2019-03-04T21:54:11.257Z,97229.19
2019-03-04T21:57:06.868Z,97231.63
2019-03-04T21:59:40.181Z,97237.64
2019-03-04T22:02:22.649Z,97243.56
2019-03-04T22:04:56.561Z,97253.52
2019-03-04T22:07:29.852Z,97246.98
2019-03-04T22:10:03.438Z,97252.30
2019-03-04T22:12:36.536Z,97251.55
2019-03-04T22:15:09.655Z,97260.66
2019-03-04T22:17:44.129Z,97263.90
2019-03-04T22:20:18.357Z,97266.95
2019-03-04T22:22:51.862Z,97264.60
2019-03-04T22:25:23.568Z,97257.69
2019-03-04T22:27:56.619Z,97258.48
2019-03-04T22:30:30.342Z,97260.97
2019-03-04T22:33:04.468Z,97270.56
2019-03-04T22:35:38.297Z,97274.92
2019-03-04T22:38:12.327Z,97270.47
2019-03-04T22:40:45.814Z,97274.98
2019-03-04T22:43:17.452Z,97277.13
2019-03-04T22:45:50.337Z,97276.44
2019-03-04T22:48:22.462Z,97274.22
2019-03-04T22:50:54.566Z,97275.22
2019-03-04T22:53:27.386Z,97280.88
2019-03-04T22:56:00.119Z,97282.95
2019-03-04T22:58:33.708Z,97283.84
2019-03-04T23:01:59.924Z,97285.16
2019-03-04T23:04:57.928Z,97288.02
2019-03-04T23:07:55.346Z,97289.55
2019-03-04T23:10:52.114Z,97288.02
2019-03-04T23:13:53.693Z,97295.40
2019-03-04T23:16:30.459Z,97284.56
2019-03-04T23:19:03.093Z,97298.22
2019-03-04T23:21:36.631Z,97288.18
2019-03-04T23:24:09.780Z,97287.47
2019-03-04T23:26:42.822Z,97293.43
2019-03-04T23:29:15.904Z,97288.97
2019-03-04T23:31:49.285Z,97285.67
2019-03-04T23:34:22.899Z,97283.86
2019-03-04T23:36:56.943Z,97285.69
2019-03-04T23:39:29.664Z,97287.47
2019-03-04T23:42:05.038Z,97281.88
2019-03-04T23:44:38.341Z,97276.77
2019-03-04T23:47:11.083Z,97280.61
2019-03-04T23:49:43.892Z,97277.13
2019-03-04T23:52:17.407Z,97283.19
2019-03-04T23:54:51.272Z,97275.94
2019-03-04T23:57:25.410Z,97288.77
2019-03-04T23:59:58.882Z,97288.55
